Jump to content


AMERICAN AIRLINES FLIGHT AA2726 FLOWN ON 03-11-2018 BY CAPTAIN JIM BOERMAN

Pilot StatsCaptain Jim Boerman (LDP136) • 4,945.1 total hours • 1,489 total flights [View Logbook]
FLIGHT DETAILS
StatusReceived and approved on 2018-03-11 at 12:03:01
Origin AirportDallas-Ft Worth Intl (KDFW) • Dallas-Ft Worth, Texas, United States (607 feet MSL)
Filed Flight PlanFLIGHT PLANNER OFFLINE
Destination AirportSangster Intl (MKJS) • Montego Bay, Jamaica (7 feet MSL)
Alternate AirportNorman Manley Intl (MKJP) • Kingston, Jamaica (10 feet MSL)
AirlineAmerican Airlines
AircraftBoeing 737-800 | Winglets (73H / B737-800)
FS Aircraft UsedBoeing 737-823 American Airlines N959NN
Cruising AltitudeFL350
Distance Flown1,344 nautical miles
Passengers Onboard102 passengers (62.96% full)
DEPARTURE DETAILS
Time Out07:45:26
Taxi Data153,579 lbs total with 25,329 lbs of fuel onboard
Takeoff Data07:57:18 (12 minutes after leaving gate/ramp) • 152,898 lbs total • 8° pitch at 166 knots
Departure METARKDFW 111153Z 01023G39KT 10SM BKN044 OVC150 17/06 A2990 RMK AO2 PK WND 01039/1143 PRESRR SLP116 VIRGA OHD-ALQDS 60000 T01720056 10211 20172 53049
ARRIVAL DETAILS
Landing Data11:12:55 • 135,271 lbs total • 4° pitch doing 127 knots at a rate of -130.72 feet/minute with 6,682 lbs of fuel onboard
Time In11:20:23 (7 minutes after landing)
Ramp Weight134,932 lbs total
Total Fuel Used18,647 lbs
Total Block Time03:34:55 (3.6 hours) while 19 minutes were spent on the ground
Arrival METARMKJS 111600Z 07014KT 9999 SCT022 28/22 Q1014
MISCELLANEOUS DETAILS
LiveDISPATCH Version4.8.3.1
FS Version
FSUIPC Version5.12
OS VersionWindows 7 32-bit
Screen Resolution1920 x 1080
Pilot's CommentsNo Comments Reported
FLIGHT MAP